sensor_id;sensor_type;location;lat;lon;timestamp;P1;durP1;ratioP1;P2;durP2;ratioP2
3815;SDS011;1923;48.154;11.536;2023-02-15T11:59:34;30.27;;;17.77;;
3815;SDS011;1923;48.154;11.536;2023-02-15T12:02:09;28.83;;;16.23;;
3815;SDS011;1923;48.154;11.536;2023-02-15T12:04:45;30.87;;;16.07;;
3815;SDS011;1923;48.154;11.536;2023-02-15T12:07:20;31.83;;;16.67;;
3815;SDS011;1923;48.154;11.536;2023-02-15T12:09:53;27.87;;;15.70;;
3815;SDS011;1923;48.154;11.536;2023-02-15T12:12:28;24.77;;;14.10;;
3815;SDS011;1923;48.154;11.536;2023-02-15T12:14:59;29.60;;;16.80;;
3815;SDS011;1923;48.154;11.536;2023-02-15T12:17:29;30.17;;;16.30;;
3815;SDS011;1923;48.154;11.536;2023-02-15T12:20:00;32.00;;;16.90;;
3815;SDS011;1923;48.154;11.536;2023-02-15T12:22:30;32.77;;;16.57;;
3815;SDS011;1923;48.154;11.536;2023-02-15T12:25:00;31.70;;;18.47;;
3815;SDS011;1923;48.154;11.536;2023-02-15T12:27:30;32.97;;;16.63;;
3815;SDS011;1923;48.154;11.536;2023-02-15T12:30:01;32.63;;;16.30;;
3815;SDS011;1923;48.154;11.536;2023-02-15T12:32:34;29.30;;;15.80;;
3815;SDS011;1923;48.154;11.536;2023-02-15T12:35:13;32.43;;;17.70;;
3815;SDS011;1923;48.154;11.536;2023-02-15T12:37:51;36.53;;;17.67;;
3815;SDS011;1923;48.154;11.536;2023-02-15T12:40:22;25.13;;;14.87;;
3815;SDS011;1923;48.154;11.536;2023-02-15T12:42:52;29.07;;;15.80;;
3815;SDS011;1923;48.154;11.536;2023-02-15T12:45:23;27.75;;;15.18;;
3815;SDS011;1923;48.154;11.536;2023-02-15T12:48:07;26.30;;;15.33;;
3815;SDS011;1923;48.154;11.536;2023-02-15T12:50:37;25.60;;;14.10;;
3815;SDS011;1923;48.154;11.536;2023-02-15T12:53:07;30.57;;;16.50;;
3815;SDS011;1923;48.154;11.536;2023-02-15T12:55:47;24.17;;;15.50;;
3815;SDS011;1923;48.154;11.536;2023-02-15T12:58:18;25.93;;;14.03;;
3815;SDS011;1923;48.154;11.536;2023-02-15T13:03:50;26.73;;;15.87;;
3815;SDS011;1923;48.154;11.536;2023-02-15T13:06:23;27.63;;;13.77;;
3815;SDS011;1923;48.154;11.536;2023-02-15T13:08:53;21.53;;;13.53;;
3815;SDS011;1923;48.154;11.536;2023-02-15T13:11:25;27.43;;;14.80;;
3815;SDS011;1923;48.154;11.536;2023-02-15T13:14:01;26.03;;;14.90;;
3815;SDS011;1923;48.154;11.536;2023-02-15T13:16:33;24.83;;;14.90;;
3815;SDS011;1923;48.154;11.536;2023-02-15T13:19:06;24.13;;;14.37;;
3815;SDS011;1923;48.154;11.536;2023-02-15T13:21:39;23.33;;;13.43;;
3815;SDS011;1923;48.154;11.536;2023-02-15T13:24:15;26.53;;;15.63;;
3815;SDS011;1923;48.154;11.536;2023-02-15T13:26:48;22.80;;;14.40;;
3815;SDS011;1923;48.154;11.536;2023-02-15T13:29:17;23.70;;;13.70;;
3815;SDS011;1923;48.154;11.536;2023-02-15T13:31:51;25.30;;;14.35;;
3815;SDS011;1923;48.154;11.536;2023-02-15T13:34:22;23.35;;;13.43;;
3815;SDS011;1923;48.154;11.536;2023-02-15T13:36:54;22.33;;;13.70;;
3815;SDS011;1923;48.154;11.536;2023-02-15T13:39:26;26.40;;;14.37;;
3815;SDS011;1923;48.154;11.536;2023-02-15T13:42:12;25.55;;;14.60;;
3815;SDS011;1923;48.154;11.536;2023-02-15T13:44:58;24.70;;;14.07;;
3815;SDS011;1923;48.154;11.536;2023-02-15T13:47:36;23.10;;;14.43;;
3815;SDS011;1923;48.154;11.536;2023-02-15T13:50:19;23.53;;;13.43;;
3815;SDS011;1923;48.154;11.536;2023-02-15T13:53:02;28.93;;;13.63;;
3815;SDS011;1923;48.154;11.536;2023-02-15T13:55:47;25.50;;;13.87;;
3815;SDS011;1923;48.154;11.536;2023-02-15T13:58:23;22.40;;;13.77;;
3815;SDS011;1923;48.154;11.536;2023-02-15T14:01:14;22.73;;;13.37;;
3815;SDS011;1923;48.154;11.536;2023-02-15T14:04:03;22.07;;;12.83;;
3815;SDS011;1923;48.154;11.536;2023-02-15T14:10:02;21.77;;;14.20;;
3815;SDS011;1923;48.154;11.536;2023-02-15T14:12:56;23.17;;;13.87;;
3815;SDS011;1923;48.154;11.536;2023-02-15T14:16:03;23.42;;;12.70;;
3815;SDS011;1923;48.154;11.536;2023-02-15T14:18:38;26.10;;;14.27;;
3815;SDS011;1923;48.154;11.536;2023-02-15T14:21:14;22.10;;;13.13;;
3815;SDS011;1923;48.154;11.536;2023-02-15T14:23:52;25.63;;;13.93;;
3815;SDS011;1923;48.154;11.536;2023-02-15T14:26:36;19.50;;;12.43;;
3815;SDS011;1923;48.154;11.536;2023-02-15T14:29:16;27.48;;;12.45;;
3815;SDS011;1923;48.154;11.536;2023-02-15T14:31:52;27.47;;;13.87;;
3815;SDS011;1923;48.154;11.536;2023-02-15T14:34:25;21.80;;;12.57;;
3815;SDS011;1923;48.154;11.536;2023-02-15T14:36:59;21.33;;;12.27;;
3815;SDS011;1923;48.154;11.536;2023-02-15T14:39:30;19.20;;;12.03;;
3815;SDS011;1923;48.154;11.536;2023-02-15T14:42:23;24.05;;;12.50;;
3815;SDS011;1923;48.154;11.536;2023-02-15T14:45:00;23.77;;;13.80;;
3815;SDS011;1923;48.154;11.536;2023-02-15T14:47:34;22.30;;;14.13;;
3815;SDS011;1923;48.154;11.536;2023-02-15T14:53:22;21.70;;;12.15;;
3815;SDS011;1923;48.154;11.536;2023-02-15T14:56:12;26.17;;;13.93;;
3815;SDS011;1923;48.154;11.536;2023-02-15T15:01:50;23.13;;;13.83;;
3815;SDS011;1923;48.154;11.536;2023-02-15T15:04:24;22.77;;;13.57;;
3815;SDS011;1923;48.154;11.536;2023-02-15T15:06:59;27.97;;;14.00;;
3815;SDS011;1923;48.154;11.536;2023-02-15T15:09:31;22.43;;;13.30;;
3815;SDS011;1923;48.154;11.536;2023-02-15T15:12:18;21.57;;;13.07;;
3815;SDS011;1923;48.154;11.536;2023-02-15T15:15:05;26.60;;;14.70;;
3815;SDS011;1923;48.154;11.536;2023-02-15T15:17:53;23.83;;;12.43;;
3815;SDS011;1923;48.154;11.536;2023-02-15T15:20:37;23.00;;;13.07;;
3815;SDS011;1923;48.154;11.536;2023-02-15T15:26:24;26.60;;;12.83;;
3815;SDS011;1923;48.154;11.536;2023-02-15T15:28:58;27.20;;;13.80;;
3815;SDS011;1923;48.154;11.536;2023-02-15T15:31:30;28.13;;;13.45;;
3815;SDS011;1923;48.154;11.536;2023-02-15T15:46:36;23.37;;;13.57;;
3815;SDS011;1923;48.154;11.536;2023-02-15T15:49:24;20.20;;;12.33;;
3815;SDS011;1923;48.154;11.536;2023-02-15T15:51:59;24.67;;;14.47;;
3815;SDS011;1923;48.154;11.536;2023-02-15T15:54:28;27.30;;;14.53;;
3815;SDS011;1923;48.154;11.536;2023-02-15T15:56:59;28.43;;;15.17;;
3815;SDS011;1923;48.154;11.536;2023-02-15T15:59:31;31.03;;;14.40;;
3815;SDS011;1923;48.154;11.536;2023-02-15T16:02:03;27.57;;;14.80;;
3815;SDS011;1923;48.154;11.536;2023-02-15T16:04:33;33.13;;;17.67;;
3815;SDS011;1923;48.154;11.536;2023-02-15T16:07:13;28.92;;;15.20;;
3815;SDS011;1923;48.154;11.536;2023-02-15T16:09:53;27.27;;;14.30;;
3815;SDS011;1923;48.154;11.536;2023-02-15T16:12:22;22.77;;;13.17;;
3815;SDS011;1923;48.154;11.536;2023-02-15T16:14:52;22.70;;;13.77;;
3815;SDS011;1923;48.154;11.536;2023-02-15T16:17:22;23.83;;;13.70;;
3815;SDS011;1923;48.154;11.536;2023-02-15T16:19:59;27.63;;;14.20;;
3815;SDS011;1923;48.154;11.536;2023-02-15T16:22:33;29.00;;;15.10;;
3815;SDS011;1923;48.154;11.536;2023-02-15T16:25:13;25.43;;;14.83;;
3815;SDS011;1923;48.154;11.536;2023-02-15T16:27:47;27.63;;;13.93;;
3815;SDS011;1923;48.154;11.536;2023-02-15T16:30:21;22.60;;;14.03;;
3815;SDS011;1923;48.154;11.536;2023-02-15T16:32:55;31.17;;;15.37;;
3815;SDS011;1923;48.154;11.536;2023-02-15T16:35:31;30.63;;;16.10;;
3815;SDS011;1923;48.154;11.536;2023-02-15T16:38:01;29.58;;;15.00;;
3815;SDS011;1923;48.154;11.536;2023-02-15T16:40:40;29.37;;;16.73;;
3815;SDS011;1923;48.154;11.536;2023-02-15T16:43:15;32.43;;;16.60;;
3815;SDS011;1923;48.154;11.536;2023-02-15T16:45:48;32.13;;;17.23;;
3815;SDS011;1923;48.154;11.536;2023-02-15T16:48:18;32.03;;;17.80;;
3815;SDS011;1923;48.154;11.536;2023-02-15T16:50:49;34.93;;;17.97;;
3815;SDS011;1923;48.154;11.536;2023-02-15T16:53:22;38.70;;;19.67;;
3815;SDS011;1923;48.154;11.536;2023-02-15T16:55:53;35.53;;;18.60;;
3815;SDS011;1923;48.154;11.536;2023-02-15T16:58:25;42.70;;;19.30;;
3815;SDS011;1923;48.154;11.536;2023-02-15T17:00:59;39.43;;;18.60;;
3815;SDS011;1923;48.154;11.536;2023-02-15T17:03:29;33.70;;;17.93;;
3815;SDS011;1923;48.154;11.536;2023-02-15T17:05:58;42.57;;;19.80;;
3815;SDS011;1923;48.154;11.536;2023-02-15T17:08:28;47.03;;;21.07;;
3815;SDS011;1923;48.154;11.536;2023-02-15T17:11:05;44.40;;;20.80;;
3815;SDS011;1923;48.154;11.536;2023-02-15T17:13:40;35.70;;;16.97;;
3815;SDS011;1923;48.154;11.536;2023-02-15T17:16:51;31.50;;;16.70;;
3815;SDS011;1923;48.154;11.536;2023-02-15T17:19:23;34.43;;;18.10;;
3815;SDS011;1923;48.154;11.536;2023-02-15T17:21:54;33.75;;;16.67;;
3815;SDS011;1923;48.154;11.536;2023-02-15T17:24:34;32.37;;;16.10;;
3815;SDS011;1923;48.154;11.536;2023-02-15T17:27:05;45.73;;;18.27;;
3815;SDS011;1923;48.154;11.536;2023-02-15T17:29:39;35.42;;;18.80;;
3815;SDS011;1923;48.154;11.536;2023-02-15T17:32:16;36.77;;;18.10;;
3815;SDS011;1923;48.154;11.536;2023-02-15T17:34:48;32.00;;;18.80;;
3815;SDS011;1923;48.154;11.536;2023-02-15T17:37:25;44.10;;;21.60;;
3815;SDS011;1923;48.154;11.536;2023-02-15T17:39:56;44.17;;;21.20;;
3815;SDS011;1923;48.154;11.536;2023-02-15T17:42:25;38.17;;;19.83;;
3815;SDS011;1923;48.154;11.536;2023-02-15T17:44:54;36.57;;;20.10;;
3815;SDS011;1923;48.154;11.536;2023-02-15T17:47:23;44.57;;;20.37;;
3815;SDS011;1923;48.154;11.536;2023-02-15T17:49:55;37.20;;;19.53;;
3815;SDS011;1923;48.154;11.536;2023-02-15T17:52:23;31.47;;;15.97;;
3815;SDS011;1923;48.154;11.536;2023-02-15T17:54:54;39.33;;;17.42;;
3815;SDS011;1923;48.154;11.536;2023-02-15T17:57:39;41.53;;;18.27;;
3815;SDS011;1923;48.154;11.536;2023-02-15T18:00:12;40.40;;;19.20;;
3815;SDS011;1923;48.154;11.536;2023-02-15T18:03:00;43.47;;;18.77;;
3815;SDS011;1923;48.154;11.536;2023-02-15T18:05:45;46.20;;;19.93;;
3815;SDS011;1923;48.154;11.536;2023-02-15T18:08:31;41.30;;;19.33;;
3815;SDS011;1923;48.154;11.536;2023-02-15T18:11:17;46.87;;;20.90;;
3815;SDS011;1923;48.154;11.536;2023-02-15T18:14:06;49.63;;;22.40;;
3815;SDS011;1923;48.154;11.536;2023-02-15T18:16:36;42.70;;;21.63;;
3815;SDS011;1923;48.154;11.536;2023-02-15T18:19:10;41.20;;;19.30;;
3815;SDS011;1923;48.154;11.536;2023-02-15T18:21:43;51.10;;;20.75;;
3815;SDS011;1923;48.154;11.536;2023-02-15T18:24:13;40.23;;;17.93;;
3815;SDS011;1923;48.154;11.536;2023-02-15T18:26:43;53.73;;;20.30;;
3815;SDS011;1923;48.154;11.536;2023-02-15T18:29:11;49.78;;;20.90;;
3815;SDS011;1923;48.154;11.536;2023-02-15T18:31:39;50.17;;;22.40;;
3815;SDS011;1923;48.154;11.536;2023-02-15T18:34:14;42.50;;;19.33;;
3815;SDS011;1923;48.154;11.536;2023-02-15T18:36:48;51.00;;;23.67;;
3815;SDS011;1923;48.154;11.536;2023-02-15T18:39:22;51.47;;;22.83;;
3815;SDS011;1923;48.154;11.536;2023-02-15T18:41:53;51.50;;;24.07;;
3815;SDS011;1923;48.154;11.536;2023-02-15T18:44:21;45.63;;;21.97;;
3815;SDS011;1923;48.154;11.536;2023-02-15T18:46:49;50.10;;;21.80;;
3815;SDS011;1923;48.154;11.536;2023-02-15T18:49:18;49.80;;;22.80;;
3815;SDS011;1923;48.154;11.536;2023-02-15T18:51:46;52.50;;;21.67;;
3815;SDS011;1923;48.154;11.536;2023-02-15T18:54:15;51.40;;;21.58;;
3815;SDS011;1923;48.154;11.536;2023-02-15T18:56:47;50.57;;;21.27;;
3815;SDS011;1923;48.154;11.536;2023-02-15T18:59:19;59.57;;;24.20;;
3815;SDS011;1923;48.154;11.536;2023-02-15T19:01:48;47.80;;;21.13;;
3815;SDS011;1923;48.154;11.536;2023-02-15T19:04:16;46.03;;;21.87;;
3815;SDS011;1923;48.154;11.536;2023-02-15T19:06:48;47.37;;;21.03;;
3815;SDS011;1923;48.154;11.536;2023-02-15T19:09:17;51.20;;;24.10;;
3815;SDS011;1923;48.154;11.536;2023-02-15T19:11:47;46.03;;;21.90;;
3815;SDS011;1923;48.154;11.536;2023-02-15T19:14:24;48.07;;;21.10;;
3815;SDS011;1923;48.154;11.536;2023-02-15T19:16:54;40.97;;;19.73;;
3815;SDS011;1923;48.154;11.536;2023-02-15T19:19:24;40.37;;;20.00;;
3815;SDS011;1923;48.154;11.536;2023-02-15T19:21:53;40.23;;;18.60;;
3815;SDS011;1923;48.154;11.536;2023-02-15T19:24:22;34.73;;;16.83;;
3815;SDS011;1923;48.154;11.536;2023-02-15T19:26:51;44.03;;;17.60;;
3815;SDS011;1923;48.154;11.536;2023-02-15T19:29:22;36.97;;;18.40;;
3815;SDS011;1923;48.154;11.536;2023-02-15T19:31:52;41.43;;;17.23;;
3815;SDS011;1923;48.154;11.536;2023-02-15T19:34:20;34.47;;;17.42;;
3815;SDS011;1923;48.154;11.536;2023-02-15T19:36:51;38.70;;;18.87;;
3815;SDS011;1923;48.154;11.536;2023-02-15T19:39:23;39.00;;;18.30;;
3815;SDS011;1923;48.154;11.536;2023-02-15T19:41:53;42.20;;;18.90;;
3815;SDS011;1923;48.154;11.536;2023-02-15T19:44:21;42.37;;;18.00;;
3815;SDS011;1923;48.154;11.536;2023-02-15T19:46:49;41.10;;;18.30;;
3815;SDS011;1923;48.154;11.536;2023-02-15T19:49:17;43.53;;;19.40;;
3815;SDS011;1923;48.154;11.536;2023-02-15T19:51:45;35.23;;;17.10;;
3815;SDS011;1923;48.154;11.536;2023-02-15T19:54:27;38.80;;;18.35;;
3815;SDS011;1923;48.154;11.536;2023-02-15T19:56:56;38.73;;;18.77;;
3815;SDS011;1923;48.154;11.536;2023-02-15T19:59:25;42.67;;;18.97;;
3815;SDS011;1923;48.154;11.536;2023-02-15T20:01:55;35.60;;;18.20;;
3815;SDS011;1923;48.154;11.536;2023-02-15T20:04:23;45.42;;;19.75;;
3815;SDS011;1923;48.154;11.536;2023-02-15T20:06:53;40.67;;;19.20;;
3815;SDS011;1923;48.154;11.536;2023-02-15T20:09:24;37.83;;;17.90;;
3815;SDS011;1923;48.154;11.536;2023-02-15T20:11:56;43.00;;;19.30;;
3815;SDS011;1923;48.154;11.536;2023-02-15T20:14:24;45.72;;;19.38;;
3815;SDS011;1923;48.154;11.536;2023-02-15T20:16:52;39.20;;;18.07;;
3815;SDS011;1923;48.154;11.536;2023-02-15T20:19:20;45.93;;;19.87;;
3815;SDS011;1923;48.154;11.536;2023-02-15T20:21:48;44.42;;;20.23;;
3815;SDS011;1923;48.154;11.536;2023-02-15T20:24:20;52.20;;;19.43;;
3815;SDS011;1923;48.154;11.536;2023-02-15T20:26:49;44.23;;;20.67;;
3815;SDS011;1923;48.154;11.536;2023-02-15T20:29:19;36.10;;;18.30;;
3815;SDS011;1923;48.154;11.536;2023-02-15T20:31:47;45.67;;;20.53;;
3815;SDS011;1923;48.154;11.536;2023-02-15T20:34:15;41.00;;;19.40;;
3815;SDS011;1923;48.154;11.536;2023-02-15T20:36:43;45.07;;;20.10;;
3815;SDS011;1923;48.154;11.536;2023-02-15T20:39:12;49.57;;;21.23;;
3815;SDS011;1923;48.154;11.536;2023-02-15T20:41:41;44.40;;;19.80;;
3815;SDS011;1923;48.154;11.536;2023-02-15T20:44:17;43.90;;;21.33;;
3815;SDS011;1923;48.154;11.536;2023-02-15T20:46:49;39.70;;;17.80;;
3815;SDS011;1923;48.154;11.536;2023-02-15T20:49:18;44.37;;;18.93;;
3815;SDS011;1923;48.154;11.536;2023-02-15T20:51:46;42.43;;;20.60;;
3815;SDS011;1923;48.154;11.536;2023-02-15T20:54:15;43.83;;;19.50;;
3815;SDS011;1923;48.154;11.536;2023-02-15T20:56:44;47.80;;;19.57;;
3815;SDS011;1923;48.154;11.536;2023-02-15T20:59:18;46.13;;;21.73;;
3815;SDS011;1923;48.154;11.536;2023-02-15T21:01:50;45.77;;;21.83;;
3815;SDS011;1923;48.154;11.536;2023-02-15T21:04:21;45.53;;;19.97;;
3815;SDS011;1923;48.154;11.536;2023-02-15T21:06:52;42.87;;;21.07;;
3815;SDS011;1923;48.154;11.536;2023-02-15T21:09:20;49.50;;;21.57;;
3815;SDS011;1923;48.154;11.536;2023-02-15T21:11:48;45.40;;;19.97;;
3815;SDS011;1923;48.154;11.536;2023-02-15T21:14:19;43.77;;;20.67;;
3815;SDS011;1923;48.154;11.536;2023-02-15T21:16:49;50.30;;;22.37;;
3815;SDS011;1923;48.154;11.536;2023-02-15T21:19:18;55.03;;;23.40;;
3815;SDS011;1923;48.154;11.536;2023-02-15T21:21:48;55.83;;;20.37;;
3815;SDS011;1923;48.154;11.536;2023-02-15T21:24:19;62.60;;;21.10;;
3815;SDS011;1923;48.154;11.536;2023-02-15T21:26:49;47.13;;;19.40;;
3815;SDS011;1923;48.154;11.536;2023-02-15T21:29:18;53.93;;;21.63;;
3815;SDS011;1923;48.154;11.536;2023-02-15T21:31:49;48.13;;;19.07;;
3815;SDS011;1923;48.154;11.536;2023-02-15T21:34:18;54.67;;;22.60;;
3815;SDS011;1923;48.154;11.536;2023-02-15T21:36:46;56.97;;;23.90;;
3815;SDS011;1923;48.154;11.536;2023-02-15T21:39:17;51.03;;;22.77;;
3815;SDS011;1923;48.154;11.536;2023-02-15T21:41:48;51.17;;;21.83;;
3815;SDS011;1923;48.154;11.536;2023-02-15T21:44:37;60.07;;;19.33;;
3815;SDS011;1923;48.154;11.536;2023-02-15T21:47:23;51.63;;;22.27;;
3815;SDS011;1923;48.154;11.536;2023-02-15T21:50:10;49.63;;;21.20;;
3815;SDS011;1923;48.154;11.536;2023-02-15T21:52:57;51.13;;;23.20;;
3815;SDS011;1923;48.154;11.536;2023-02-15T21:55:26;51.80;;;23.73;;
3815;SDS011;1923;48.154;11.536;2023-02-15T21:57:54;60.47;;;24.40;;
3815;SDS011;1923;48.154;11.536;2023-02-15T22:00:24;56.83;;;22.67;;
3815;SDS011;1923;48.154;11.536;2023-02-15T22:02:53;57.27;;;24.07;;
3815;SDS011;1923;48.154;11.536;2023-02-15T22:05:24;49.57;;;21.70;;
3815;SDS011;1923;48.154;11.536;2023-02-15T22:07:55;49.33;;;19.30;;
3815;SDS011;1923;48.154;11.536;2023-02-15T22:10:24;60.53;;;22.20;;
3815;SDS011;1923;48.154;11.536;2023-02-15T22:12:54;45.47;;;20.10;;
3815;SDS011;1923;48.154;11.536;2023-02-15T22:15:26;51.47;;;22.30;;
3815;SDS011;1923;48.154;11.536;2023-02-15T22:17:56;57.37;;;21.47;;
3815;SDS011;1923;48.154;11.536;2023-02-15T22:20:24;41.97;;;18.17;;
3815;SDS011;1923;48.154;11.536;2023-02-15T22:22:53;51.13;;;19.60;;
3815;SDS011;1923;48.154;11.536;2023-02-15T22:25:22;35.30;;;16.67;;
3815;SDS011;1923;48.154;11.536;2023-02-15T22:27:52;37.87;;;16.97;;
3815;SDS011;1923;48.154;11.536;2023-02-15T22:30:22;40.90;;;17.10;;
3815;SDS011;1923;48.154;11.536;2023-02-15T22:32:54;40.23;;;18.10;;
3815;SDS011;1923;48.154;11.536;2023-02-15T22:35:24;44.83;;;19.60;;
3815;SDS011;1923;48.154;11.536;2023-02-15T22:37:53;40.93;;;20.23;;
3815;SDS011;1923;48.154;11.536;2023-02-15T22:40:24;34.07;;;17.13;;
3815;SDS011;1923;48.154;11.536;2023-02-15T22:42:55;43.87;;;17.10;;
3815;SDS011;1923;48.154;11.536;2023-02-15T22:45:25;42.33;;;18.33;;
3815;SDS011;1923;48.154;11.536;2023-02-15T22:47:56;40.80;;;18.20;;
3815;SDS011;1923;48.154;11.536;2023-02-15T22:50:27;37.57;;;18.07;;
3815;SDS011;1923;48.154;11.536;2023-02-15T22:52:57;42.55;;;18.73;;
3815;SDS011;1923;48.154;11.536;2023-02-15T22:55:26;35.87;;;17.40;;
3815;SDS011;1923;48.154;11.536;2023-02-15T22:57:57;31.03;;;15.87;;
3815;SDS011;1923;48.154;11.536;2023-02-15T23:00:26;37.15;;;17.30;;
3815;SDS011;1923;48.154;11.536;2023-02-15T23:02:58;37.13;;;20.30;;
3815;SDS011;1923;48.154;11.536;2023-02-15T23:05:28;36.00;;;17.92;;
3815;SDS011;1923;48.154;11.536;2023-02-15T23:07:57;29.40;;;16.87;;
3815;SDS011;1923;48.154;11.536;2023-02-15T23:10:25;31.77;;;15.00;;
3815;SDS011;1923;48.154;11.536;2023-02-15T23:12:55;34.23;;;16.37;;
3815;SDS011;1923;48.154;11.536;2023-02-15T23:15:43;31.90;;;16.00;;
3815;SDS011;1923;48.154;11.536;2023-02-15T23:18:16;31.97;;;17.70;;
3815;SDS011;1923;48.154;11.536;2023-02-15T23:20:47;36.10;;;18.40;;
3815;SDS011;1923;48.154;11.536;2023-02-15T23:23:18;36.60;;;17.47;;
3815;SDS011;1923;48.154;11.536;2023-02-15T23:25:52;32.53;;;17.20;;
3815;SDS011;1923;48.154;11.536;2023-02-15T23:28:22;33.37;;;18.13;;
3815;SDS011;1923;48.154;11.536;2023-02-15T23:30:51;31.10;;;17.20;;
3815;SDS011;1923;48.154;11.536;2023-02-15T23:33:22;26.50;;;15.60;;
3815;SDS011;1923;48.154;11.536;2023-02-15T23:35:51;28.33;;;17.27;;
3815;SDS011;1923;48.154;11.536;2023-02-15T23:38:21;28.77;;;15.23;;
3815;SDS011;1923;48.154;11.536;2023-02-15T23:40:54;29.13;;;16.00;;
3815;SDS011;1923;48.154;11.536;2023-02-15T23:43:42;31.90;;;16.63;;
3815;SDS011;1923;48.154;11.536;2023-02-15T23:46:19;29.70;;;17.30;;
3815;SDS011;1923;48.154;11.536;2023-02-15T23:48:51;30.47;;;17.13;;
3815;SDS011;1923;48.154;11.536;2023-02-15T23:51:19;31.00;;;15.23;;
3815;SDS011;1923;48.154;11.536;2023-02-15T23:53:49;28.10;;;15.57;;
3815;SDS011;1923;48.154;11.536;2023-02-15T23:56:17;28.35;;;14.20;;
3815;SDS011;1923;48.154;11.536;2023-02-15T23:58:45;25.27;;;12.90;;
